createdAt,value
2018-12-31T00:02:33.799Z,6.50
2018-12-31T00:05:01.899Z,6.50
2018-12-31T00:07:30.043Z,6.20
2018-12-31T00:09:57.934Z,6.20
2018-12-31T00:12:25.758Z,6.50
2018-12-31T00:14:53.595Z,6.40
2018-12-31T00:17:21.130Z,6.40
2018-12-31T00:19:48.960Z,6.40
2018-12-31T00:22:16.859Z,6.70
2018-12-31T00:24:44.389Z,6.30
2018-12-31T00:27:11.979Z,6.30
2018-12-31T00:29:39.494Z,6.50
2018-12-31T00:32:07.714Z,6.40
2018-12-31T00:34:35.535Z,6.20
2018-12-31T00:37:03.930Z,6.40
2018-12-31T00:39:31.572Z,6.50
2018-12-31T00:41:59.138Z,6.40
2018-12-31T00:44:26.742Z,6.20
2018-12-31T00:46:54.267Z,6.50
2018-12-31T00:49:22.431Z,6.70
2018-12-31T00:51:50.532Z,6.20
2018-12-31T00:54:18.355Z,6.30
2018-12-31T00:56:46.232Z,6.50
2018-12-31T00:59:13.774Z,6.10
2018-12-31T01:01:41.494Z,6.40
2018-12-31T01:04:09.695Z,6.30
2018-12-31T01:06:37.597Z,6.30
2018-12-31T01:09:06.343Z,6.30
2018-12-31T01:11:33.831Z,6.20
2018-12-31T01:14:01.372Z,6.10
2018-12-31T01:16:28.951Z,6.40
2018-12-31T01:18:56.459Z,6.40
2018-12-31T01:21:23.951Z,6.30
2018-12-31T01:23:52.083Z,6.40
2018-12-31T01:26:19.570Z,6.20
2018-12-31T01:28:47.350Z,6.10
2018-12-31T01:31:14.802Z,6.20
2018-12-31T01:33:42.707Z,6.30
2018-12-31T01:36:10.215Z,6.50
2018-12-31T01:38:37.736Z,6.40
2018-12-31T01:41:05.591Z,6.10
2018-12-31T01:43:33.094Z,6.40
2018-12-31T01:46:01.254Z,6.40
2018-12-31T01:48:28.798Z,6.30
2018-12-31T01:50:56.252Z,6.40
2018-12-31T01:53:24.407Z,6.10
2018-12-31T01:55:52.194Z,6.20
2018-12-31T01:58:19.672Z,6.20
2018-12-31T02:00:47.174Z,6.20
2018-12-31T02:03:14.804Z,6.20
2018-12-31T02:05:42.705Z,6.40
2018-12-31T02:08:10.263Z,6.00
2018-12-31T02:10:38.096Z,6.20
2018-12-31T02:13:05.978Z,6.40
2018-12-31T02:15:33.810Z,5.90
2018-12-31T02:18:01.999Z,6.20
2018-12-31T02:20:29.978Z,6.10
2018-12-31T02:22:58.135Z,6.10
2018-12-31T02:25:25.652Z,6.10
2018-12-31T02:27:53.164Z,6.10
2018-12-31T02:30:21.131Z,6.20
2018-12-31T02:32:48.979Z,6.20
2018-12-31T02:35:16.841Z,6.20
2018-12-31T02:37:44.730Z,6.00
2018-12-31T02:40:12.555Z,6.30
2018-12-31T02:42:40.980Z,6.20
2018-12-31T02:45:08.672Z,6.20
2018-12-31T02:47:36.444Z,6.30
2018-12-31T02:50:04.585Z,6.30
2018-12-31T02:52:32.174Z,6.10
2018-12-31T02:54:59.792Z,6.20
2018-12-31T02:57:27.572Z,6.30
2018-12-31T02:59:55.539Z,6.10
2018-12-31T03:02:23.436Z,6.20
2018-12-31T03:04:51.282Z,6.20
2018-12-31T03:07:18.830Z,6.30
2018-12-31T03:09:46.682Z,6.40
2018-12-31T03:12:14.244Z,6.60
2018-12-31T03:14:41.831Z,6.40
2018-12-31T03:17:09.346Z,6.40
2018-12-31T03:19:36.803Z,6.10
2018-12-31T03:22:04.572Z,6.20
2018-12-31T03:24:32.615Z,6.30
2018-12-31T03:27:00.150Z,6.10
2018-12-31T03:29:27.658Z,6.10
2018-12-31T03:31:55.148Z,6.20
2018-12-31T03:34:22.736Z,6.10
2018-12-31T03:36:50.254Z,6.20
2018-12-31T03:39:18.403Z,6.20
2018-12-31T03:41:46.359Z,6.60
2018-12-31T03:44:13.974Z,6.20
2018-12-31T03:46:41.506Z,6.30
2018-12-31T03:49:09.707Z,6.40
2018-12-31T03:51:37.327Z,6.40
2018-12-31T03:54:05.593Z,6.20
2018-12-31T03:56:33.528Z,6.50
2018-12-31T03:59:01.479Z,6.30
2018-12-31T04:01:29.952Z,6.30
2018-12-31T04:03:57.466Z,6.10
2018-12-31T04:06:25.985Z,6.50
2018-12-31T04:09:13.706Z,6.30
2018-12-31T04:11:42.225Z,6.20
2018-12-31T04:14:10.083Z,6.50
2018-12-31T04:16:39.088Z,6.40
2018-12-31T04:19:07.523Z,6.40
2018-12-31T04:21:36.160Z,6.70
2018-12-31T04:24:03.990Z,6.60
2018-12-31T04:26:32.199Z,6.60
2018-12-31T04:29:00.806Z,6.30
2018-12-31T04:31:28.716Z,6.70
2018-12-31T04:33:57.014Z,6.60
2018-12-31T04:36:24.863Z,6.60
2018-12-31T04:38:53.485Z,6.50
2018-12-31T04:41:21.437Z,6.30
2018-12-31T04:43:49.290Z,6.60
2018-12-31T04:46:17.251Z,6.40
2018-12-31T04:48:45.153Z,6.40
2018-12-31T04:51:13.362Z,6.70
2018-12-31T04:53:41.617Z,6.50
2018-12-31T04:56:09.697Z,6.30
2018-12-31T04:58:38.309Z,6.40
2018-12-31T05:01:06.222Z,6.70
2018-12-31T05:03:34.255Z,6.40
2018-12-31T05:06:02.022Z,6.50
2018-12-31T05:08:29.646Z,6.40
2018-12-31T05:10:57.268Z,6.40
2018-12-31T05:13:24.839Z,6.40
2018-12-31T05:15:52.916Z,6.50
2018-12-31T05:18:21.114Z,6.30
2018-12-31T05:20:49.425Z,6.50
2018-12-31T05:23:17.906Z,6.60
2018-12-31T05:25:45.824Z,6.50
2018-12-31T05:28:13.890Z,6.40
2018-12-31T05:30:41.444Z,6.40
2018-12-31T05:33:09.267Z,6.40
2018-12-31T05:35:37.487Z,6.50
2018-12-31T05:38:05.400Z,6.30
2018-12-31T05:40:33.750Z,6.30
2018-12-31T05:43:01.512Z,6.70
2018-12-31T05:45:30.278Z,6.40
2018-12-31T05:48:00.406Z,6.40
2018-12-31T05:50:28.173Z,6.60
2018-12-31T05:52:56.354Z,6.70
2018-12-31T05:55:24.331Z,6.70
2018-12-31T05:57:52.244Z,6.60
2018-12-31T06:00:19.754Z,6.40
2018-12-31T06:02:48.288Z,6.50
2018-12-31T06:05:15.864Z,6.60
2018-12-31T06:07:44.446Z,6.40
2018-12-31T06:10:14.450Z,6.40
2018-12-31T06:12:42.434Z,6.60
2018-12-31T06:15:11.223Z,6.40
2018-12-31T06:17:39.262Z,6.50
2018-12-31T06:20:08.360Z,6.50
2018-12-31T06:22:36.274Z,6.40
2018-12-31T06:25:04.186Z,6.70
2018-12-31T06:27:32.127Z,6.60
2018-12-31T06:30:01.043Z,6.40
2018-12-31T06:32:30.411Z,6.50
2018-12-31T06:34:58.558Z,6.60
2018-12-31T06:37:26.192Z,6.40
2018-12-31T06:39:54.343Z,6.40
2018-12-31T06:42:21.862Z,6.60
2018-12-31T06:44:50.252Z,6.30
2018-12-31T06:47:19.338Z,6.30
2018-12-31T06:49:47.922Z,6.60
2018-12-31T06:52:15.551Z,6.40
2018-12-31T06:54:43.324Z,6.50
2018-12-31T06:57:13.778Z,6.30
2018-12-31T06:59:41.919Z,6.50
2018-12-31T07:02:10.419Z,6.20
2018-12-31T07:04:39.106Z,6.40
2018-12-31T07:07:06.971Z,6.30
2018-12-31T07:09:35.954Z,6.30
2018-12-31T07:12:03.814Z,6.40
2018-12-31T07:14:34.087Z,6.40
2018-12-31T07:17:02.510Z,6.50
2018-12-31T07:19:33.476Z,6.70
2018-12-31T07:22:03.847Z,6.60
2018-12-31T07:24:32.435Z,6.70
2018-12-31T07:27:00.322Z,6.40
2018-12-31T07:29:37.244Z,6.60
2018-12-31T07:32:05.482Z,6.50
2018-12-31T07:34:33.962Z,6.50
2018-12-31T07:37:02.709Z,6.30
2018-12-31T07:39:31.874Z,6.50
2018-12-31T07:42:00.158Z,6.40
2018-12-31T07:44:28.042Z,6.50
2018-12-31T07:46:56.048Z,6.50
2018-12-31T07:49:24.999Z,6.30
2018-12-31T07:51:53.142Z,6.50
2018-12-31T07:54:21.957Z,6.70
2018-12-31T07:56:49.943Z,6.50
2018-12-31T07:59:17.831Z,6.50
2018-12-31T08:01:45.663Z,6.70
2018-12-31T08:04:13.282Z,6.70
2018-12-31T08:06:41.596Z,6.60
2018-12-31T08:09:09.894Z,6.70
2018-12-31T08:11:38.182Z,6.60
2018-12-31T08:14:06.723Z,6.90
2018-12-31T08:16:34.630Z,6.60
2018-12-31T08:19:02.904Z,6.50
2018-12-31T08:21:30.418Z,6.80
2018-12-31T08:23:58.179Z,7.00
2018-12-31T08:26:27.096Z,6.80
2018-12-31T08:28:54.994Z,6.90
2018-12-31T08:31:22.506Z,6.80
2018-12-31T08:33:50.414Z,6.70
2018-12-31T08:36:18.235Z,6.70
2018-12-31T08:38:46.603Z,6.60
2018-12-31T08:41:15.981Z,6.80
2018-12-31T08:43:45.664Z,6.60
2018-12-31T08:46:13.518Z,6.60
2018-12-31T08:48:41.356Z,6.80
2018-12-31T08:51:09.721Z,6.90
2018-12-31T08:53:37.366Z,6.60
2018-12-31T08:56:05.034Z,6.70
2018-12-31T08:58:33.642Z,6.70
2018-12-31T09:01:01.147Z,6.80
2018-12-31T09:03:28.935Z,6.80
2018-12-31T09:05:57.161Z,6.90
2018-12-31T09:08:26.097Z,7.00
2018-12-31T09:10:54.004Z,6.80
2018-12-31T09:13:22.010Z,6.90
2018-12-31T09:15:51.135Z,7.00
2018-12-31T09:18:18.775Z,7.00
2018-12-31T09:20:46.328Z,7.00
2018-12-31T09:23:13.871Z,7.00
2018-12-31T09:25:42.647Z,6.80
2018-12-31T09:28:10.606Z,6.90
2018-12-31T09:30:38.993Z,7.00
2018-12-31T09:33:06.823Z,7.00
2018-12-31T09:35:35.407Z,7.20
2018-12-31T09:38:06.895Z,6.90
2018-12-31T09:40:37.038Z,6.90
2018-12-31T09:43:06.299Z,6.90
2018-12-31T09:45:36.277Z,6.80
2018-12-31T09:48:07.803Z,6.90
2018-12-31T09:50:37.898Z,7.00
2018-12-31T09:53:06.026Z,6.80
2018-12-31T09:55:35.518Z,7.00
2018-12-31T09:58:05.822Z,6.60
2018-12-31T10:00:34.599Z,6.90
2018-12-31T10:03:05.227Z,6.70
2018-12-31T10:05:33.048Z,6.90
2018-12-31T10:08:01.841Z,7.10
2018-12-31T10:10:30.315Z,7.00
2018-12-31T10:12:59.614Z,7.00
2018-12-31T10:15:27.487Z,6.50
2018-12-31T10:18:01.035Z,6.90
2018-12-31T10:20:31.991Z,6.90
2018-12-31T10:23:06.675Z,7.00
2018-12-31T10:25:37.907Z,6.90
2018-12-31T10:28:06.474Z,7.10
2018-12-31T10:30:36.236Z,7.20
2018-12-31T10:33:05.158Z,7.20
2018-12-31T10:35:33.802Z,7.10
2018-12-31T10:38:01.749Z,6.90
2018-12-31T10:40:29.947Z,7.00
2018-12-31T10:42:58.083Z,7.10
2018-12-31T10:45:29.666Z,7.40
2018-12-31T10:47:58.698Z,7.20
2018-12-31T10:50:30.148Z,7.10
2018-12-31T10:52:57.772Z,7.10
2018-12-31T10:55:27.598Z,7.20
2018-12-31T10:57:57.290Z,7.10
2018-12-31T11:00:26.020Z,7.30
2018-12-31T11:02:54.035Z,7.40
2018-12-31T11:05:22.713Z,7.40
2018-12-31T11:07:51.850Z,7.40
2018-12-31T11:10:20.011Z,7.50
2018-12-31T11:12:47.818Z,7.50
2018-12-31T11:15:15.471Z,7.30
2018-12-31T11:17:44.096Z,7.40
2018-12-31T11:20:20.172Z,7.40
2018-12-31T11:22:51.734Z,7.40
2018-12-31T11:25:20.719Z,7.70
2018-12-31T11:27:49.311Z,7.50
2018-12-31T11:30:19.539Z,7.60
2018-12-31T11:32:47.358Z,7.30
2018-12-31T11:35:16.252Z,7.60
2018-12-31T11:37:46.599Z,7.50
2018-12-31T11:40:15.160Z,7.40
2018-12-31T11:42:45.583Z,7.40
2018-12-31T11:45:16.407Z,7.00
2018-12-31T11:47:59.722Z,7.50
2018-12-31T11:50:30.803Z,7.60
2018-12-31T11:53:02.215Z,7.80
2018-12-31T11:55:30.402Z,7.70
2018-12-31T11:58:03.238Z,7.60
2018-12-31T12:00:32.008Z,7.80
2018-12-31T12:03:01.434Z,7.70
2018-12-31T12:05:32.804Z,7.70
2018-12-31T12:08:05.212Z,7.70
2018-12-31T12:10:32.829Z,7.60
2018-12-31T12:13:04.458Z,7.50
2018-12-31T12:15:33.802Z,7.90
2018-12-31T12:18:03.283Z,8.00
2018-12-31T12:20:36.443Z,8.00
2018-12-31T12:23:06.667Z,8.00
2018-12-31T12:25:34.774Z,7.90
2018-12-31T12:28:05.192Z,7.80
2018-12-31T12:30:34.663Z,7.60
2018-12-31T12:33:03.071Z,7.90
2018-12-31T12:35:31.026Z,7.70
2018-12-31T12:38:17.002Z,7.80
2018-12-31T12:40:52.778Z,8.10
2018-12-31T12:43:21.494Z,7.90
2018-12-31T12:45:59.341Z,7.70
2018-12-31T12:48:27.936Z,8.00
2018-12-31T12:50:58.735Z,7.80
2018-12-31T12:53:27.879Z,8.10
2018-12-31T12:55:57.259Z,7.40
2018-12-31T12:58:29.901Z,8.10
2018-12-31T13:00:59.826Z,8.10
2018-12-31T13:03:27.884Z,8.00
2018-12-31T13:05:58.794Z,8.00
2018-12-31T13:08:27.394Z,8.20
2018-12-31T13:10:55.550Z,8.00
2018-12-31T13:13:23.150Z,8.10
2018-12-31T13:15:52.691Z,8.50
2018-12-31T13:18:21.930Z,8.30
2018-12-31T13:20:50.299Z,8.60
2018-12-31T13:23:18.670Z,8.40
2018-12-31T13:25:46.283Z,8.30
2018-12-31T13:28:14.160Z,8.20
2018-12-31T13:30:43.478Z,8.10
2018-12-31T13:33:11.449Z,8.40
2018-12-31T13:35:39.627Z,8.30
2018-12-31T13:38:08.384Z,8.20
2018-12-31T13:40:38.203Z,8.50
2018-12-31T13:43:06.454Z,8.30
2018-12-31T13:45:34.402Z,8.40
2018-12-31T13:48:02.250Z,8.10
2018-12-31T13:50:31.753Z,8.40
2018-12-31T13:52:59.871Z,8.30
2018-12-31T13:55:28.510Z,8.30
2018-12-31T13:57:57.294Z,8.50
2018-12-31T14:00:24.818Z,8.40
2018-12-31T14:02:54.091Z,8.00
2018-12-31T14:05:22.471Z,8.50
2018-12-31T14:07:52.986Z,8.20
2018-12-31T14:10:21.884Z,8.30
2018-12-31T14:12:50.301Z,8.30
2018-12-31T14:15:18.418Z,8.40
2018-12-31T14:17:46.023Z,8.40
2018-12-31T14:20:13.629Z,8.30
2018-12-31T14:22:41.240Z,8.30
2018-12-31T14:25:09.060Z,8.40
2018-12-31T14:27:36.911Z,8.20
2018-12-31T14:30:09.144Z,8.40
2018-12-31T14:32:37.927Z,8.10
2018-12-31T14:35:05.561Z,8.30
2018-12-31T14:37:33.543Z,8.20
2018-12-31T14:40:01.982Z,8.50
2018-12-31T14:42:29.662Z,8.30
2018-12-31T14:44:57.607Z,8.20
2018-12-31T14:47:25.663Z,8.40
2018-12-31T14:49:53.588Z,8.60
2018-12-31T14:52:21.526Z,8.30
2018-12-31T14:54:49.340Z,7.90
2018-12-31T14:57:17.266Z,8.30
2018-12-31T14:59:45.102Z,8.40
2018-12-31T15:02:12.617Z,8.20
2018-12-31T15:04:40.515Z,8.50
2018-12-31T15:07:08.218Z,8.40
2018-12-31T15:09:36.097Z,8.50
2018-12-31T15:12:04.555Z,8.40
2018-12-31T15:14:32.457Z,8.60
2018-12-31T15:17:00.054Z,8.40
2018-12-31T15:19:28.112Z,8.30
2018-12-31T15:21:55.986Z,8.50
2018-12-31T15:24:27.232Z,8.40
2018-12-31T15:26:56.910Z,8.20
2018-12-31T15:29:25.367Z,8.30
2018-12-31T15:31:53.697Z,8.00
2018-12-31T15:34:21.664Z,7.90
2018-12-31T15:36:49.251Z,8.10
2018-12-31T15:39:16.871Z,8.00
2018-12-31T15:41:45.300Z,8.20
2018-12-31T15:44:13.233Z,8.00
2018-12-31T15:46:41.256Z,8.00
2018-12-31T15:49:08.870Z,8.10
2018-12-31T15:51:36.427Z,8.00
2018-12-31T15:54:04.398Z,8.00
2018-12-31T15:56:32.326Z,8.10
2018-12-31T15:58:59.899Z,7.80
2018-12-31T16:01:27.984Z,7.80
2018-12-31T16:03:55.951Z,8.10
2018-12-31T16:06:23.917Z,8.00
2018-12-31T16:08:51.528Z,8.00
2018-12-31T16:11:21.553Z,8.00
2018-12-31T16:13:49.877Z,8.10
2018-12-31T16:16:17.505Z,8.10
2018-12-31T16:18:45.739Z,7.90
2018-12-31T16:21:13.996Z,7.90
2018-12-31T16:23:41.923Z,8.00
2018-12-31T16:26:09.496Z,8.00
2018-12-31T16:28:37.360Z,7.90
2018-12-31T16:31:04.954Z,8.00
2018-12-31T16:33:32.856Z,7.70
2018-12-31T16:36:00.719Z,7.80
2018-12-31T16:38:28.378Z,8.00
2018-12-31T16:40:56.200Z,8.00
2018-12-31T16:43:23.827Z,7.70
2018-12-31T16:45:51.347Z,8.00
2018-12-31T16:48:18.953Z,7.60
2018-12-31T16:50:46.794Z,7.80
2018-12-31T16:53:14.721Z,7.90
2018-12-31T16:55:42.604Z,8.00
2018-12-31T16:58:10.928Z,7.90
2018-12-31T17:00:39.106Z,8.10
2018-12-31T17:03:07.300Z,8.00
2018-12-31T17:05:35.190Z,7.70
2018-12-31T17:08:03.059Z,7.60
2018-12-31T17:10:30.703Z,7.70
2018-12-31T17:13:00.325Z,7.80
2018-12-31T17:15:27.915Z,7.90
2018-12-31T17:17:56.898Z,7.80
2018-12-31T17:20:24.926Z,7.90
2018-12-31T17:22:52.939Z,8.00
2018-12-31T17:25:20.884Z,8.10
2018-12-31T17:27:48.779Z,7.80
2018-12-31T17:30:16.466Z,7.70
2018-12-31T17:32:44.443Z,7.60
2018-12-31T17:35:12.415Z,7.90
2018-12-31T17:37:40.627Z,7.80
2018-12-31T17:40:08.344Z,7.50
2018-12-31T17:42:36.815Z,7.70
2018-12-31T17:45:04.680Z,7.70
2018-12-31T17:47:32.258Z,7.80
2018-12-31T17:49:59.930Z,7.90
2018-12-31T17:52:27.559Z,7.80
2018-12-31T17:54:55.286Z,7.50
2018-12-31T17:57:22.859Z,7.60
2018-12-31T17:59:50.806Z,7.60
2018-12-31T18:02:19.551Z,7.50
2018-12-31T18:04:47.121Z,7.70
2018-12-31T18:07:14.744Z,7.70
2018-12-31T18:09:42.713Z,7.60
2018-12-31T18:12:10.770Z,7.80
2018-12-31T18:14:38.373Z,7.70
2018-12-31T18:17:06.420Z,7.70
2018-12-31T18:19:34.475Z,7.60
2018-12-31T18:22:02.425Z,7.90
2018-12-31T18:24:30.496Z,7.60
2018-12-31T18:26:58.804Z,7.90
2018-12-31T18:29:26.838Z,7.70
2018-12-31T18:31:54.749Z,7.70
2018-12-31T18:34:22.718Z,7.80
2018-12-31T18:36:50.894Z,7.60
2018-12-31T18:39:19.307Z,7.50
2018-12-31T18:41:46.910Z,7.70
2018-12-31T18:44:14.785Z,7.50
2018-12-31T18:46:42.932Z,7.40
2018-12-31T18:49:11.832Z,7.60
2018-12-31T18:51:39.669Z,7.40
2018-12-31T18:54:07.574Z,7.40
2018-12-31T18:56:35.437Z,7.60
2018-12-31T18:59:03.895Z,7.40
2018-12-31T19:01:31.519Z,7.50
2018-12-31T19:03:59.931Z,7.40
2018-12-31T19:06:27.824Z,7.40
2018-12-31T19:08:56.053Z,7.60
2018-12-31T19:11:24.492Z,7.50
2018-12-31T19:13:52.559Z,7.50
2018-12-31T19:16:20.522Z,7.50
2018-12-31T19:18:49.188Z,7.40
2018-12-31T19:21:17.394Z,7.70
2018-12-31T19:23:45.469Z,7.70
2018-12-31T19:26:14.704Z,7.50
2018-12-31T19:28:42.206Z,7.60
2018-12-31T19:31:10.578Z,7.70
2018-12-31T19:33:38.464Z,7.90
2018-12-31T19:36:07.463Z,7.50
2018-12-31T19:38:35.914Z,7.60
2018-12-31T19:41:03.576Z,7.90
2018-12-31T19:43:31.817Z,7.20
2018-12-31T19:49:47.230Z,7.60
2018-12-31T19:52:14.902Z,7.50
2018-12-31T19:54:42.485Z,7.50
2018-12-31T19:57:10.397Z,7.40
2018-12-31T19:59:38.626Z,7.90
2018-12-31T20:02:06.236Z,7.60
2018-12-31T20:04:34.135Z,7.60
2018-12-31T20:07:03.547Z,7.60
2018-12-31T20:09:31.135Z,7.70
2018-12-31T20:11:58.731Z,7.80
2018-12-31T20:14:26.555Z,7.60
2018-12-31T20:16:54.244Z,7.70
2018-12-31T20:19:21.813Z,6.90
2018-12-31T20:21:50.046Z,7.50
2018-12-31T20:24:17.677Z,7.60
2018-12-31T20:26:45.284Z,7.60
2018-12-31T20:29:13.035Z,7.60
2018-12-31T20:31:40.623Z,7.40
2018-12-31T20:34:08.379Z,7.60
2018-12-31T20:36:36.346Z,7.60
2018-12-31T20:39:05.449Z,7.70
2018-12-31T20:41:33.357Z,7.80
2018-12-31T20:44:01.214Z,7.80
2018-12-31T20:46:28.863Z,7.60
2018-12-31T20:48:57.080Z,7.50
2018-12-31T20:51:24.699Z,7.60
2018-12-31T20:53:52.650Z,7.60
2018-12-31T20:56:20.275Z,7.50
2018-12-31T20:58:48.160Z,7.60
2018-12-31T21:01:16.109Z,7.50
2018-12-31T21:03:44.417Z,7.60
2018-12-31T21:06:12.013Z,7.60
2018-12-31T21:08:39.630Z,7.60
2018-12-31T21:11:07.634Z,7.60
2018-12-31T21:13:35.587Z,7.60
2018-12-31T21:16:03.239Z,7.60
2018-12-31T21:18:30.850Z,7.80
2018-12-31T21:20:58.440Z,7.60
2018-12-31T21:23:26.332Z,7.70
2018-12-31T21:25:53.923Z,7.70
2018-12-31T21:28:21.843Z,7.60
2018-12-31T21:30:49.417Z,7.70
2018-12-31T21:33:18.111Z,7.80
2018-12-31T21:35:46.083Z,7.70
2018-12-31T21:38:13.941Z,7.90
2018-12-31T21:40:41.889Z,7.60
2018-12-31T21:43:09.482Z,7.90
2018-12-31T21:45:37.653Z,7.70
2018-12-31T21:48:05.752Z,7.70
2018-12-31T21:50:34.102Z,7.80
2018-12-31T21:53:01.686Z,7.70
2018-12-31T21:55:29.214Z,7.90
2018-12-31T21:57:57.162Z,7.70
2018-12-31T22:00:25.330Z,7.80
2018-12-31T22:02:56.982Z,7.70
2018-12-31T22:05:22.699Z,7.50
2018-12-31T22:07:50.435Z,7.70
2018-12-31T22:10:18.018Z,7.70
2018-12-31T22:12:45.558Z,7.90
2018-12-31T22:15:13.094Z,7.60
2018-12-31T22:17:41.101Z,7.60
2018-12-31T22:20:09.730Z,7.50
2018-12-31T22:22:37.692Z,7.70
2018-12-31T22:25:05.845Z,7.60
2018-12-31T22:27:33.738Z,7.20
2018-12-31T22:30:01.614Z,7.60
2018-12-31T22:32:29.921Z,7.60
2018-12-31T22:34:57.500Z,7.60
2018-12-31T22:37:26.006Z,7.80
2018-12-31T22:39:53.943Z,7.60
2018-12-31T22:42:21.830Z,7.50
2018-12-31T22:44:49.456Z,7.70
2018-12-31T22:47:17.666Z,7.90
2018-12-31T22:49:45.260Z,7.10
2018-12-31T22:52:13.273Z,7.80
2018-12-31T22:54:41.104Z,7.70
2018-12-31T22:57:08.760Z,7.80
2018-12-31T22:59:36.789Z,7.80
2018-12-31T23:02:04.696Z,7.70
2018-12-31T23:04:32.295Z,7.80
2018-12-31T23:07:03.327Z,7.70
2018-12-31T23:09:31.667Z,7.70
2018-12-31T23:11:59.314Z,7.70
2018-12-31T23:14:27.942Z,7.80
2018-12-31T23:17:07.328Z,7.70
2018-12-31T23:19:41.678Z,7.90
2018-12-31T23:22:06.367Z,7.60
2018-12-31T23:24:33.986Z,7.80
2018-12-31T23:27:01.603Z,7.70
2018-12-31T23:29:29.610Z,7.70
2018-12-31T23:31:57.200Z,7.70
2018-12-31T23:34:25.093Z,7.80
2018-12-31T23:36:52.705Z,7.90
2018-12-31T23:39:20.370Z,7.70
2018-12-31T23:41:47.976Z,7.70
2018-12-31T23:44:15.833Z,7.60
2018-12-31T23:46:44.130Z,7.70
2018-12-31T23:49:11.926Z,7.90
2018-12-31T23:51:39.539Z,7.70
2018-12-31T23:54:07.763Z,7.80
2018-12-31T23:56:35.715Z,8.00
2018-12-31T23:59:03.388Z,7.70
